Time;durP1;ratioP1;P1;durP2;ratioP2;P2;SDS_P1;SDS_P2;PMS_P1;PMS_P2;Temp;Humidity;BMP_temperature;BMP_pressure;BME280_temperature;BME280_humidity;BME280_pressure;Samples;Min_cycle;Max_cycle;Signal;HPM_P1;HPM_P2
2022/08/07 00:02:15;;;;;;;16.35;3.03;;;;;;;29.65;70.97;100655.56;5055163;28;66116;-34
2022/08/07 00:05:06;;;;;;;5.53;2.60;;;;;;;29.57;71.10;100645.81;5050477;28;70609;-33
2022/08/07 00:07:38;;;;;;;6.50;2.58;;;;;;;29.68;70.40;100655.94;5058690;28;66509;-34
2022/08/07 00:10:10;;;;;;;6.22;2.53;;;;;;;29.67;71.63;100658.84;5056593;28;69604;-32
2022/08/07 00:13:00;;;;;;;4.47;3.03;;;;;;;29.70;71.30;100670.09;5051353;28;64270;-32
2022/08/07 00:15:52;;;;;;;2.83;2.53;;;;;;;29.62;71.42;100656.78;5050443;28;70752;-32
2022/08/07 00:18:27;;;;;;;6.63;3.10;;;;;;;29.75;71.28;100682.94;5047786;28;66304;-33
2022/08/07 00:21:02;;;;;;;2.83;2.45;;;;;;;29.47;71.59;100623.81;5051601;28;69184;-34
2022/08/07 00:23:53;;;;;;;5.78;3.10;;;;;;;29.78;71.48;100680.66;5044196;28;65487;-34
2022/08/07 00:26:25;;;;;;;3.38;3.08;;;;;;;29.79;72.39;100689.56;5052144;28;69956;-33
2022/08/07 00:29:18;;;;;;;10.13;3.53;;;;;;;29.78;72.23;100694.16;5050128;28;65370;-33
2022/08/07 00:31:58;;;;;;;2.95;2.70;;;;;;;29.81;71.78;100696.44;5060117;28;70856;-33
2022/08/07 00:34:30;;;;;;;7.07;3.60;;;;;;;29.81;72.22;100693.72;5057129;28;67273;-33
2022/08/07 00:37:04;;;;;;;7.63;2.97;;;;;;;29.79;72.41;100690.41;5058718;28;69688;-33
2022/08/07 00:39:36;;;;;;;3.15;2.83;;;;;;;29.84;71.62;100682.47;5048205;28;66561;-32
2022/08/07 00:42:23;;;;;;;2.88;2.58;;;;;;;29.82;72.61;100689.97;5053385;28;70029;-31
2022/08/07 00:44:58;;;;;;;5.80;3.03;;;;;;;29.84;72.45;100695.16;5058311;28;65621;-32
2022/08/07 00:47:36;;;;;;;5.45;2.92;;;;;;;29.77;72.44;100692.47;5054940;28;70083;-36
2022/08/07 00:50:27;;;;;;;3.08;2.70;;;;;;;29.72;72.90;100686.91;5048238;28;66859;-34
2022/08/07 00:53:19;;;;;;;3.87;3.23;;;;;;;29.82;72.33;100711.59;5059313;28;69586;-33
2022/08/07 00:55:51;;;;;;;3.00;2.70;;;;;;;29.83;71.62;100710.53;5058593;28;65838;-31
2022/08/07 00:58:32;;;;;;;2.67;2.15;;;;;;;29.58;71.92;100677.19;5051293;28;69522;-33
2022/08/07 01:01:04;;;;;;;3.15;2.38;;;;;;;29.82;71.23;100716.19;5056816;28;65776;-33
2022/08/07 01:03:36;;;;;;;5.82;2.88;;;;;;;29.83;71.65;100724.06;5058011;28;69278;-32
2022/08/07 01:06:30;;;;;;;3.15;2.20;;;;;;;29.83;71.38;100726.75;5052468;28;66101;-32
2022/08/07 01:09:02;;;;;;;3.00;2.70;;;;;;;29.84;71.44;100731.16;5049890;28;70142;-32
2022/08/07 01:11:38;;;;;;;3.33;2.45;;;;;;;29.78;70.86;100725.75;5052230;28;66134;-32
2022/08/07 01:14:30;;;;;;;2.83;2.63;;;;;;;29.85;70.68;100734.66;5054763;28;69678;-32
2022/08/07 01:17:05;;;;;;;2.90;2.53;;;;;;;29.79;71.31;100730.97;5053337;28;65683;-32
2022/08/07 01:19:37;;;;;;;2.85;2.65;;;;;;;29.80;71.47;100729.91;5057863;28;69895;-32
2022/08/07 01:22:24;;;;;;;2.22;2.03;;;;;;;29.81;71.42;100723.47;5046895;28;65677;-32
2022/08/07 01:25:00;;;;;;;2.92;2.45;;;;;;;29.77;71.12;100713.28;5052108;28;70269;-32
2022/08/07 01:27:52;;;;;;;2.60;2.38;;;;;;;29.81;71.13;100717.22;5049974;28;66127;-32
2022/08/07 01:30:25;;;;;;;;;;;;;;;29.50;71.80;100707.16;5062678;28;70245;-32
2022/08/07 01:32:59;;;;;;;2.28;2.08;;;;;;;29.78;70.85;100707.69;5051347;28;66275;-32
2022/08/07 01:35:32;;;;;;;3.13;2.70;;;;;;;29.81;70.61;100706.38;5053538;28;70553;-33
2022/08/07 01:38:28;;;;;;;2.67;2.47;;;;;;;29.81;70.72;100711.78;5054065;28;66949;-33
2022/08/07 01:41:09;;;;;;;2.38;2.17;;;;;;;29.82;70.74;100711.59;5070932;28;70381;-33
2022/08/07 01:43:56;;;;;;;2.15;1.67;;;;;;;29.82;70.79;100721.59;5057144;28;66753;-34
2022/08/07 01:46:35;;;;;;;2.20;2.00;;;;;;;29.79;71.04;100728.25;5058672;28;69334;-34
2022/08/07 01:49:11;;;;;;;2.33;2.13;;;;;;;29.82;71.14;100738.63;5056467;28;66457;-33
2022/08/07 01:51:48;;;;;;;3.22;2.17;;;;;;;29.81;71.16;100737.00;5046737;28;70012;-34
2022/08/07 01:54:36;;;;;;;2.20;1.90;;;;;;;29.80;71.18;100729.91;5055817;28;65757;-33
2022/08/07 01:57:22;;;;;;;2.60;2.40;;;;;;;29.40;70.60;100670.63;5059390;28;69825;-32
2022/08/07 02:00:05;;;;;;;3.33;2.40;;;;;;;29.12;71.11;100635.03;5050501;28;66494;-33
2022/08/07 02:02:53;;;;;;;3.13;2.63;;;;;;;29.82;70.87;100738.63;5059161;28;69781;-33
2022/08/07 02:06:01;;;;;;;3.03;2.20;;;;;;;29.38;71.11;100667.31;5058470;28;66335;-35
2022/08/07 02:08:54;;;;;;;2.65;2.45;;;;;;;29.44;70.59;100665.59;5053257;28;70633;-33
2022/08/07 02:11:28;;;;;;;4.50;2.10;;;;;;;29.81;71.04;100726.16;5058447;28;65542;-34
2022/08/07 02:14:21;;;;;;;2.40;2.20;;;;;;;29.80;70.73;100735.31;5053586;28;69868;-34
2022/08/07 02:17:19;;;;;;;3.08;2.60;;;;;;;29.74;71.09;100714.56;5058295;28;66271;-33
2022/08/07 02:20:05;;;;;;;5.85;2.47;;;;;;;29.53;70.93;100682.41;5052120;28;69209;-34
2022/08/07 02:22:51;;;;;;;4.57;2.33;;;;;;;29.45;70.45;100666.44;5040633;28;65660;-33
2022/08/07 02:25:25;;;;;;;5.60;2.30;;;;;;;29.82;70.82;100729.69;5056934;28;69529;-33
2022/08/07 02:28:19;;;;;;;2.67;2.47;;;;;;;29.81;70.51;100737.00;5063032;28;66096;-35
2022/08/07 02:31:03;;;;;;;7.35;2.72;;;;;;;29.82;71.21;100730.53;5047966;28;69317;-33
2022/08/07 02:33:56;;;;;;;4.40;2.72;;;;;;;29.47;71.04;100681.38;5062384;28;66314;-32
2022/08/07 02:36:40;;;;;;;6.07;3.53;;;;;;;29.87;71.31;100734.47;5061849;28;69694;-33
2022/08/07 02:39:17;;;;;;;5.60;2.40;;;;;;;29.86;71.21;100727.38;5060147;28;66684;-34
2022/08/07 02:42:13;;;;;;;8.38;3.10;;;;;;;29.84;70.96;100727.63;5060639;28;70062;-33
2022/08/07 02:44:50;;;;;;;4.13;3.05;;;;;;;29.53;71.12;100674.28;5057574;28;66768;-32
2022/08/07 02:47:25;;;;;;;5.05;2.80;;;;;;;29.88;71.20;100715.31;5059428;28;70365;-33
2022/08/07 02:50:13;;;;;;;3.63;2.70;;;;;;;29.88;71.41;100718.00;5048894;28;65318;-33
2022/08/07 02:52:56;;;;;;;3.35;2.33;;;;;;;29.89;70.90;100716.13;5060199;28;70070;-33
2022/08/07 02:55:37;;;;;;;8.63;3.65;;;;;;;29.83;70.80;100702.44;5060223;28;66192;-34
2022/08/07 02:58:30;;;;;;;3.30;2.33;;;;;;;29.83;71.67;100707.00;5051097;28;70071;-33
2022/08/07 03:01:04;;;;;;;4.57;2.78;;;;;;;29.92;71.52;100716.53;5061211;28;66571;-33
2022/08/07 03:03:49;;;;;;;50.25;19.70;;;;;;;29.93;71.69;100717.38;5059686;28;69592;-34
2022/08/07 03:06:30;;;;;;;84.22;32.65;;;;;;;29.95;72.08;100720.66;5054629;28;66325;-33
2022/08/07 03:09:09;;;;;;;85.50;32.53;;;;;;;29.86;72.41;100703.03;5059212;28;69172;-33
2022/08/07 03:11:42;;;;;;;80.30;30.88;;;;;;;29.96;72.39;100720.47;5050824;28;65503;-33
2022/08/07 03:14:31;;;;;;;70.40;27.30;;;;;;;29.95;72.18;100717.94;5047613;28;69935;-33
2022/08/07 03:17:04;;;;;;;62.15;24.30;;;;;;;30.00;72.57;100724.38;5058853;28;66782;-33
2022/08/07 03:19:39;;;;;;;72.63;23.42;;;;;;;29.99;72.60;100716.50;5054358;28;70165;-34
2022/08/07 03:22:23;;;;;;;64.60;20.88;;;;;;;29.77;73.07;100675.44;5057296;28;65518;-34
2022/08/07 03:25:00;;;;;;;44.97;17.10;;;;;;;30.04;73.20;100720.19;5055773;28;70126;-33
2022/08/07 03:27:42;;;;;;;44.03;15.75;;;;;;;29.62;73.41;100640.56;5054311;28;66393;-33
2022/08/07 03:30:31;;;;;;;41.25;13.45;;;;;;;30.11;73.31;100719.31;5033537;28;69824;-34
2022/08/07 03:33:04;;;;;;;31.25;11.25;;;;;;;30.07;72.90;100691.88;5055687;28;66276;-34
2022/08/07 03:35:40;;;;;;;24.88;9.80;;;;;;;30.16;72.49;100709.50;5035039;28;70297;-32
2022/08/07 03:38:21;;;;;;;21.05;8.48;;;;;;;30.16;72.13;100709.50;5057526;28;66598;-34
2022/08/07 03:41:06;;;;;;;16.70;7.90;;;;;;;30.11;72.10;100684.16;5071902;28;69966;-33
2022/08/07 03:43:40;;;;;;;17.38;7.30;;;;;;;30.22;72.59;100705.94;5056598;28;67679;-33
2022/08/07 03:46:31;;;;;;;11.35;6.63;;;;;;;30.22;72.31;100700.53;5058742;28;69412;-33
2022/08/07 03:49:04;;;;;;;9.05;5.93;;;;;;;30.25;72.25;100697.38;5057711;28;66665;-31
2022/08/07 03:51:42;;;;;;;8.35;5.68;;;;;;;30.28;72.19;100699.66;5070712;28;69357;-31
2022/08/07 03:54:18;;;;;;;10.52;5.30;;;;;;;30.32;71.89;100693.81;5063580;28;66055;-29
2022/08/07 03:57:13;;;;;;;15.18;5.00;;;;;;;30.34;71.70;100692.53;5059214;28;70395;-30
2022/08/07 04:00:06;;;;;;;8.57;4.72;;;;;;;30.37;71.37;100688.53;5062256;28;65469;-31
2022/08/07 04:02:49;;;;;;;9.70;3.78;;;;;;;30.38;70.99;100682.09;5060459;28;69428;-31
2022/08/07 04:05:35;;;;;;;4.70;3.90;;;;;;;30.40;70.66;100674.59;5055243;28;66233;-31
2022/08/07 04:08:14;;;;;;;8.98;3.63;;;;;;;30.03;70.68;100617.63;5048263;28;69588;-30
2022/08/07 04:10:53;;;;;;;5.18;3.50;;;;;;;30.34;70.56;100660.06;5056480;28;65828;-31
2022/08/07 04:13:46;;;;;;;4.20;3.25;;;;;;;30.46;70.33;100673.69;5053443;28;70346;-32
2022/08/07 04:16:39;;;;;;;3.42;2.97;;;;;;;30.48;70.54;100663.47;5055969;28;66419;-33
2022/08/07 04:19:29;;;;;;;4.45;2.97;;;;;;;30.50;70.33;100658.66;5055451;28;70290;-31
2022/08/07 04:22:24;;;;;;;3.20;2.75;;;;;;;30.17;70.29;100600.25;5052619;28;66648;-30
2022/08/07 04:25:04;;;;;;;3.42;2.90;;;;;;;30.49;69.57;100654.28;5037396;28;69853;-32
2022/08/07 04:27:45;;;;;;;7.57;2.70;;;;;;;30.55;69.84;100641.75;5057962;28;67636;-31
2022/08/07 04:30:29;;;;;;;5.13;2.40;;;;;;;30.44;69.34;100618.94;5060437;28;70321;-30
2022/08/07 04:33:24;;;;;;;3.10;2.60;;;;;;;30.14;69.53;100557.38;5060368;28;65840;-31
2022/08/07 04:35:57;;;;;;;3.40;2.75;;;;;;;30.60;69.20;100621.06;5042233;28;70639;-30
2022/08/07 04:38:37;;;;;;;9.52;2.38;;;;;;;30.58;67.83;100623.16;5056665;28;66144;-30
2022/08/07 04:41:10;;;;;;;2.90;2.22;;;;;;;30.48;66.57;100633.72;5055929;28;69955;-32
2022/08/07 04:43:49;;;;;;;9.10;2.72;;;;;;;30.30;64.75;100609.31;5050171;28;66432;-33
2022/08/07 04:46:56;;;;;;;7.95;2.75;;;;;;;29.71;63.43;100539.25;5055440;28;70402;-33
2022/08/07 04:49:55;;;;;;;9.35;2.72;;;;;;;30.14;63.23;100610.66;5055336;28;66556;-32
2022/08/07 04:52:45;;;;;;;5.73;3.20;;;;;;;30.02;63.64;100619.50;5057061;28;70354;-32
2022/08/07 04:55:42;;;;;;;6.82;2.90;;;;;;;29.56;64.10;100527.91;5039911;28;65693;-32
2022/08/07 04:59:06;;;;;;;3.17;2.60;;;;;;;29.96;62.63;100597.94;5051204;28;70172;-31
2022/08/07 05:02:02;;;;;;;3.60;2.55;;;;;;;29.39;61.42;100536.56;5044977;28;66456;-31
2022/08/07 05:04:41;;;;;;;3.00;2.60;;;;;;;29.79;60.33;100609.28;5058521;28;69375;-33
2022/08/07 05:07:47;;;;;;;5.55;2.60;;;;;;;28.93;59.49;100470.13;5051734;28;66261;-33
2022/08/07 05:10:50;;;;;;;3.42;2.53;;;;;;;29.68;58.89;100601.88;5051825;28;69557;-32
2022/08/07 05:13:37;;;;;;;2.95;2.10;;;;;;;29.65;57.79;100605.03;5052972;28;66092;-31
2022/08/07 05:16:32;;;;;;;3.78;2.45;;;;;;;28.77;56.95;100465.25;5058602;28;69885;-32
2022/08/07 05:19:16;;;;;;;2.70;1.73;;;;;;;28.77;57.07;100469.81;5056500;28;66023;-33
2022/08/07 05:21:59;;;;;;;2.42;1.75;;;;;;;29.12;56.11;100529.69;5059651;28;69398;-32
2022/08/07 05:24:40;;;;;;;3.00;1.65;;;;;;;29.36;55.38;100558.63;5050861;28;66293;-34
2022/08/07 05:27:17;;;;;;;6.88;1.92;;;;;;;29.05;54.96;100499.19;5051001;28;69890;-34
2022/08/07 05:30:09;;;;;;;2.63;2.22;;;;;;;29.38;55.49;100556.53;5062567;28;65150;-33
2022/08/07 05:32:45;;;;;;;3.40;1.98;;;;;;;29.35;54.46;100556.97;5059550;28;70670;-34
2022/08/07 05:35:18;;;;;;;1.65;1.55;;;;;;;29.39;54.63;100555.50;5062286;28;65973;-32
2022/08/07 05:38:06;;;;;;;1.98;1.77;;;;;;;28.86;53.93;100463.09;5047214;28;69276;-31
2022/08/07 05:40:41;;;;;;;2.25;1.60;;;;;;;29.37;53.23;100546.78;5080003;28;65629;-32
2022/08/07 05:43:22;;;;;;;;;;;;;;;28.99;53.43;100533.25;5074326;28;70182;-32
2022/08/07 05:46:16;;;;;;;2.97;1.90;;;;;;;28.87;52.54;100446.72;5073623;28;66300;-32
2022/08/07 05:48:49;;;;;;;5.75;2.08;;;;;;;29.03;52.27;100466.13;5070003;28;69600;-34
2022/08/07 05:51:32;;;;;;;2.22;2.03;;;;;;;29.32;52.26;100507.94;5060586;28;66469;-32
2022/08/07 05:54:10;;;;;;;1.60;1.48;;;;;;;29.30;51.89;100505.44;5060216;28;69620;-32
2022/08/07 05:57:05;;;;;;;3.13;1.85;;;;;;;29.31;51.94;100506.28;5053490;28;66505;-31
2022/08/07 05:59:39;;;;;;;1.77;1.40;;;;;;;28.93;51.07;100431.50;5044236;28;70177;-32
2022/08/07 06:02:32;;;;;;;2.78;1.20;;;;;;;28.85;51.08;100418.28;5061398;28;65690;-32
2022/08/07 06:05:11;;;;;;;1.70;1.38;;;;;;;29.20;50.94;100474.56;5077983;27;69871;-31
2022/08/07 06:07:50;;;;;;;1.67;1.58;;;;;;;29.29;50.46;100482.19;5059854;28;65568;-33
2022/08/07 06:10:43;;;;;;;1.33;1.08;;;;;;;29.26;50.16;100469.13;5057064;28;69228;-32
2022/08/07 06:13:20;;;;;;;2.75;1.20;;;;;;;29.25;49.78;100466.63;5051640;28;66592;-32
2022/08/07 06:16:14;;;;;;;3.67;1.30;;;;;;;29.13;49.69;100450.31;5059276;28;70558;-33
2022/08/07 06:18:47;;;;;;;2.22;1.40;;;;;;;29.26;50.17;100463.72;5059987;28;66447;-32
2022/08/07 06:21:27;;;;;;;1.50;1.40;;;;;;;29.20;49.55;100444.84;5054132;28;70216;-35
2022/08/07 06:24:18;;;;;;;1.52;1.40;;;;;;;29.24;49.67;100449.59;5062094;28;66170;-33
2022/08/07 06:27:10;;;;;;;2.25;1.48;;;;;;;29.22;50.12;100440.88;5065902;28;70429;-33
2022/08/07 06:30:02;;;;;;;3.20;1.60;;;;;;;29.24;49.94;100437.97;5062677;28;65752;-32
2022/08/07 06:32:33;;;;;;;1.25;1.10;;;;;;;29.26;49.37;100434.00;5060890;28;70154;-33
2022/08/07 06:35:08;;;;;;;1.40;0.90;;;;;;;29.25;49.63;100432.34;5062455;28;66103;-32
2022/08/07 06:37:47;;;;;;;1.60;1.40;;;;;;;29.18;49.72;100418.06;5063635;28;70246;-32
2022/08/07 06:40:21;;;;;;;1.60;1.10;;;;;;;29.28;49.89;100426.50;5059436;28;66721;-32
2022/08/07 06:42:54;;;;;;;1.17;0.97;;;;;;;29.26;49.28;100419.69;5072933;28;69377;-31
2022/08/07 06:45:39;;;;;;;1.40;1.30;;;;;;;29.25;49.81;100404.50;5069222;28;66398;-31
2022/08/07 06:48:14;;;;;;;3.00;1.13;;;;;;;29.22;48.69;100397.66;5065058;28;69533;-32
2022/08/07 06:50:59;;;;;;;1.98;1.13;;;;;;;29.24;48.67;100400.97;5064462;28;65705;-34
2022/08/07 06:53:41;;;;;;;1.65;0.82;;;;;;;28.84;48.77;100325.66;5059908;28;70615;-32
2022/08/07 06:56:38;;;;;;;1.67;1.00;;;;;;;29.11;48.78;100357.88;5079451;28;66652;-32
2022/08/07 06:59:31;;;;;;;2.17;1.52;;;;;;;29.45;47.99;100407.03;5057521;28;69914;-32
2022/08/07 07:02:27;;;;;;;2.08;1.08;;;;;;;29.40;48.64;100397.72;5073739;28;66470;-31
2022/08/07 07:05:21;;;;;;;1.65;1.25;;;;;;;28.72;47.73;100270.72;5076633;28;69322;-32
2022/08/07 07:08:12;;;;;;;1.63;1.00;;;;;;;29.50;47.82;100389.09;5063623;28;67102;-32
2022/08/07 07:10:54;;;;;;;1.10;1.00;;;;;;;29.44;47.51;100394.56;5063076;28;70226;-33
2022/08/07 07:13:40;;;;;;;1.30;0.93;;;;;;;29.06;46.94;100328.00;5061262;28;66398;-32
2022/08/07 07:16:35;;;;;;;1.80;1.00;;;;;;;29.50;47.42;100401.78;5046494;28;70148;-32
2022/08/07 07:19:28;;;;;;;1.77;1.27;;;;;;;29.43;47.04;100382.94;5065018;28;66741;-33
2022/08/07 07:22:21;;;;;;;5.97;1.42;;;;;;;29.57;48.06;100373.66;5063137;28;69854;-32
2022/08/07 07:25:15;;;;;;;2.15;1.40;;;;;;;29.49;47.39;100363.13;5062026;28;66491;-31
2022/08/07 07:28:27;;;;;;;1.23;1.10;;;;;;;29.56;47.47;100376.56;5055265;28;70658;-33
2022/08/07 07:31:20;;;;;;;1.63;1.23;;;;;;;29.61;47.82;100371.31;5054816;28;66483;-32
2022/08/07 07:33:58;;;;;;;2.00;1.30;;;;;;;29.56;47.33;100360.34;5062499;28;69423;-32
2022/08/07 07:36:31;;;;;;;1.60;1.40;;;;;;;29.62;47.72;100364.88;5062708;28;66423;-32
2022/08/07 07:39:04;;;;;;;1.75;1.33;;;;;;;29.29;47.16;100301.19;5068526;28;69203;-33
2022/08/07 07:41:39;;;;;;;3.25;0.98;;;;;;;29.50;46.71;100345.03;5063346;28;65521;-33
2022/08/07 07:44:32;;;;;;;1.05;0.95;;;;;;;29.19;47.46;100290.06;5056692;28;69421;-32
2022/08/07 07:47:06;;;;;;;1.40;1.20;;;;;;;29.04;47.33;100265.31;5058985;28;65823;-32
2022/08/07 07:49:54;;;;;;;1.95;1.30;;;;;;;29.62;46.23;100354.88;5072186;28;69471;-32
2022/08/07 07:52:46;;;;;;;1.00;0.90;;;;;;;29.61;46.49;100341.59;5072638;28;66646;-32
2022/08/07 07:55:18;;;;;;;;;;;;;;;29.37;46.84;100363.03;5057817;28;70263;-33
2022/08/07 07:57:53;;;;;;;1.40;0.85;;;;;;;29.72;46.79;100361.66;5073174;28;66447;-32
2022/08/07 08:00:28;;;;;;;1.58;1.20;;;;;;;29.73;46.49;100350.66;5072532;27;70439;-34
2022/08/07 08:03:09;;;;;;;3.30;1.40;;;;;;;29.36;46.55;100291.16;5069500;28;66207;-34
2022/08/07 08:05:46;;;;;;;3.03;1.20;;;;;;;29.71;46.37;100352.75;5070838;28;70664;-31
2022/08/07 08:08:27;;;;;;;11.85;1.35;;;;;;;29.73;45.62;100356.06;5053164;28;66456;-32
2022/08/07 08:11:07;;;;;;;2.75;1.50;;;;;;;29.70;46.34;100345.69;5052669;28;70314;-32
2022/08/07 08:13:49;;;;;;;1.92;1.40;;;;;;;29.60;46.96;100331.84;5059847;28;66218;-34
2022/08/07 08:16:54;;;;;;;3.17;1.65;;;;;;;29.63;47.63;100342.22;5046558;28;69612;-33
2022/08/07 08:19:48;;;;;;;5.80;2.08;;;;;;;29.88;55.12;100341.31;5053038;28;66056;-32
2022/08/07 08:28:27;;;;;;;5.63;2.15;;;;;;;29.95;61.99;100260.94;5049040;28;70219;-35
2022/08/07 08:31:09;;;;;;;4.93;2.40;;;;;;;30.50;63.02;100340.09;5047448;28;66791;-34
2022/08/07 08:33:50;;;;;;;3.30;2.42;;;;;;;30.62;62.66;100337.44;5047973;28;70793;-33
2022/08/07 08:36:31;;;;;;;4.00;2.92;;;;;;;30.24;63.37;100265.56;5060000;28;65792;-32
2022/08/07 08:39:05;;;;;;;2.83;2.63;;;;;;;30.66;63.62;100322.38;5053873;28;70424;-33
2022/08/07 08:42:03;;;;;;;5.95;2.97;;;;;;;30.89;63.15;100343.28;5049512;28;65375;-33
2022/08/07 08:44:50;;;;;;;7.55;2.30;;;;;;;31.13;61.56;100346.84;5068809;28;70401;-36
2022/08/07 08:47:30;;;;;;;7.82;2.72;;;;;;;31.31;60.43;100336.94;5070079;27;66577;-33
2022/08/07 08:50:31;;;;;;;8.45;2.22;;;;;;;31.02;60.20;100274.53;5059425;28;70222;-33
2022/08/07 08:53:18;;;;;;;7.97;2.28;;;;;;;31.54;60.39;100339.69;5064417;28;66637;-32
2022/08/07 08:56:06;;;;;;;7.10;2.45;;;;;;;31.07;60.57;100258.38;5077009;28;70196;-32
2022/08/07 08:59:14;;;;;;;7.43;2.65;;;;;;;31.53;60.86;100321.75;5080147;28;66393;-34
2022/08/07 09:02:07;;;;;;;5.57;2.95;;;;;;;31.37;60.85;100273.69;5058427;28;69944;-34
2022/08/07 09:05:11;;;;;;;5.78;2.60;;;;;;;31.89;60.45;100343.38;5074207;28;66704;-32
2022/08/07 09:07:56;;;;;;;6.82;2.55;;;;;;;31.88;61.21;100345.25;5064486;28;70502;-32
2022/08/07 09:10:43;;;;;;;3.70;2.60;;;;;;;31.88;61.41;100339.84;5058997;28;66346;-32
2022/08/07 09:13:24;;;;;;;3.03;2.50;;;;;;;32.04;60.89;100338.28;5060749;28;69351;-34
2022/08/07 09:16:10;;;;;;;5.22;3.03;;;;;;;31.64;61.13;100281.31;5062153;28;64894;-33
2022/08/07 09:18:54;;;;;;;6.38;2.72;;;;;;;32.12;60.47;100345.22;5061598;28;69599;-33
2022/08/07 09:21:57;;;;;;;6.47;3.28;;;;;;;32.10;61.61;100350.06;5053712;28;66224;-33
2022/08/07 09:25:24;;;;;;;6.65;2.45;;;;;;;32.09;62.19;100356.53;5044770;28;69847;-33
2022/08/07 09:27:59;;;;;;;5.15;2.97;;;;;;;32.22;61.66;100362.50;5050832;28;66519;-32
2022/08/07 09:31:00;;;;;;;6.80;3.25;;;;;;;32.13;62.61;100363.16;5062439;28;69619;-33
2022/08/07 09:33:40;;;;;;;6.80;3.00;;;;;;;32.27;62.25;100359.09;5050378;28;65772;-33
2022/08/07 09:36:59;;;;;;;7.53;3.40;;;;;;;31.78;62.29;100280.78;5059837;28;70021;-34
2022/08/07 09:39:46;;;;;;;4.47;3.58;;;;;;;32.30;62.03;100361.31;5060207;28;65555;-34
2022/08/07 09:42:46;;;;;;;9.32;2.83;;;;;;;32.30;62.40;100361.31;5060331;28;70164;-33
2022/08/07 09:46:08;;;;;;;5.05;3.30;;;;;;;32.25;62.08;100361.22;5046891;28;65775;-33
2022/08/07 09:49:20;;;;;;;3.95;3.28;;;;;;;32.37;62.00;100358.44;5058851;28;70012;-32
2022/08/07 09:52:14;;;;;;;;;;;;;;;32.05;63.29;100361.63;5051181;28;66323;-34
2022/08/07 09:55:09;;;;;;;4.20;3.80;;;;;;;32.36;62.59;100368.47;5058408;28;69992;-34
2022/08/07 09:58:27;;;;;;;5.05;4.65;;;;;;;31.93;62.47;100307.44;5059318;28;66533;-33
2022/08/07 10:01:19;;;;;;;7.38;4.15;;;;;;;32.35;62.27;100366.84;5058023;28;70210;-33
2022/08/07 10:04:55;;;;;;;5.07;4.55;;;;;;;32.30;62.59;100369.44;5059424;28;65749;-35
2022/08/07 10:07:47;;;;;;;4.65;4.13;;;;;;;32.39;62.30;100373.41;5052168;28;70235;-33
2022/08/07 10:10:46;;;;;;;5.95;4.75;;;;;;;32.19;62.70;100364.91;5049920;28;66622;-33
2022/08/07 10:14:06;;;;;;;5.97;5.18;;;;;;;32.12;62.13;100339.78;5051852;28;70190;-34
2022/08/07 10:17:01;;;;;;;12.02;5.47;;;;;;;32.26;62.71;100385.41;5042241;28;66098;-34
2022/08/07 10:19:54;;;;;;;6.20;5.20;;;;;;;32.41;61.90;100392.19;5058826;28;70569;-33
2022/08/07 10:22:29;;;;;;;5.40;4.88;;;;;;;32.40;62.40;100385.94;5059390;28;65539;-32
2022/08/07 10:25:23;;;;;;;5.63;5.13;;;;;;;32.33;62.68;100390.69;5057420;28;70954;-33
2022/08/07 10:28:40;;;;;;;5.45;4.95;;;;;;;32.37;62.35;100401.88;5061010;27;65954;-36
2022/08/07 10:32:08;;;;;;;5.95;5.07;;;;;;;31.89;62.68;100335.22;5049230;28;69579;-32
2022/08/07 10:35:35;;;;;;;7.13;6.43;;;;;;;32.30;62.84;100412.06;5056387;28;65330;-32
2022/08/07 10:38:41;;;;;;;5.80;5.40;;;;;;;32.33;62.63;100428.69;5056504;28;69499;-32
2022/08/07 10:41:33;;;;;;;;;;;;;;;32.07;63.52;100430.06;5055608;28;66420;-34
2022/08/07 10:44:52;;;;;;;6.78;6.07;;;;;;;32.35;62.29;100434.69;5054686;28;70664;-33
2022/08/07 10:47:33;;;;;;;6.38;5.68;;;;;;;32.40;62.38;100451.09;5046919;28;65304;-33
2022/08/07 10:50:49;;;;;;;6.78;6.28;;;;;;;32.06;61.97;100384.97;5053803;28;69281;-35
2022/08/07 10:53:53;;;;;;;6.82;6.10;;;;;;;31.87;62.38;100381.56;5058463;28;66333;-34
2022/08/07 10:56:46;;;;;;;7.03;6.55;;;;;;;32.39;62.07;100446.72;5066656;28;70199;-34
2022/08/07 10:59:25;;;;;;;7.97;7.18;;;;;;;32.38;62.31;100441.53;5060737;28;65867;-32
2022/08/07 11:02:34;;;;;;;7.40;6.72;;;;;;;32.26;62.68;100460.56;5047423;28;70250;-34
2022/08/07 11:05:30;;;;;;;14.13;7.22;;;;;;;32.09;63.44;100459.66;5050879;28;66113;-33
2022/08/07 11:08:50;;;;;;;16.27;7.55;;;;;;;31.90;64.43;100467.06;5049968;28;70258;-35
2022/08/07 11:11:53;;;;;;;8.73;7.88;;;;;;;31.76;65.07;100474.63;5059477;28;66758;-35
2022/08/07 11:14:40;;;;;;;8.73;7.90;;;;;;;30.98;64.96;100357.31;5057426;28;70215;-35
2022/08/07 11:17:45;;;;;;;9.05;7.28;;;;;;;31.72;65.97;100476.16;5054747;28;66580;-35
2022/08/07 11:20:18;;;;;;;10.48;7.45;;;;;;;31.86;65.03;100472.16;5050984;28;70200;-35
2022/08/07 11:23:03;;;;;;;10.63;7.55;;;;;;;31.50;64.78;100414.38;5055840;28;66176;-35
2022/08/07 11:26:05;;;;;;;17.05;7.65;;;;;;;31.95;64.43;100475.34;5050608;28;70045;-35
2022/08/07 11:28:50;;;;;;;8.95;7.75;;;;;;;31.96;64.27;100464.28;5053068;28;66295;-35
2022/08/07 11:32:08;;;;;;;13.68;7.68;;;;;;;32.05;64.21;100481.00;5050020;28;70588;-34
2022/08/07 11:34:55;;;;;;;10.70;7.47;;;;;;;32.09;64.00;100478.63;5048795;28;65702;-35
2022/08/07 11:37:55;;;;;;;8.55;7.63;;;;;;;32.21;63.63;100490.31;5048889;28;70115;-35
2022/08/07 11:40:51;;;;;;;8.95;7.40;;;;;;;32.22;63.19;100486.53;5037551;28;66939;-33
2022/08/07 11:43:35;;;;;;;9.57;7.20;;;;;;;32.11;63.57;100480.06;5051687;28;70374;-33
2022/08/07 11:46:54;;;;;;;8.30;7.35;;;;;;;32.21;63.25;100495.75;5049345;28;65698;-33
2022/08/07 11:50:08;;;;;;;9.35;7.18;;;;;;;31.77;63.94;100430.19;5047169;28;70168;-34
2022/08/07 11:53:19;;;;;;;11.18;7.75;;;;;;;32.21;63.31;100506.59;5042247;28;66170;-35
2022/08/07 11:56:05;;;;;;;7.47;6.82;;;;;;;32.28;62.86;100510.00;5045541;28;69645;-33
2022/08/07 11:59:08;;;;;;;12.27;6.90;;;;;;;32.29;63.14;100511.66;5046685;28;66100;-34
2022/08/07 12:02:30;;;;;;;7.88;7.13;;;;;;;32.23;63.02;100520.75;5054847;28;69158;-34
2022/08/07 12:05:26;;;;;;;6.97;6.22;;;;;;;31.74;63.06;100439.63;5050162;28;65251;-35
2022/08/07 12:08:34;;;;;;;12.20;7.07;;;;;;;31.70;63.86;100467.44;5049694;28;70083;-35
2022/08/07 12:11:13;;;;;;;7.60;6.90;;;;;;;31.96;64.69;100526.66;5050779;28;65919;-35
2022/08/07 12:14:10;;;;;;;9.18;6.82;;;;;;;31.80;65.14;100533.59;5055725;28;70152;-35
2022/08/07 12:17:11;;;;;;;14.00;7.00;;;;;;;31.64;65.72;100533.44;5053614;28;65318;-35
2022/08/07 12:20:16;;;;;;;15.75;7.45;;;;;;;31.70;66.21;100532.50;5056079;28;69737;-35
2022/08/07 12:23:49;;;;;;;11.00;6.70;;;;;;;31.51;66.10;100540.75;5047868;28;66630;-36
2022/08/07 12:27:08;;;;;;;20.75;6.95;;;;;;;31.61;66.03;100543.69;5038897;28;70119;-35
2022/08/07 12:30:01;;;;;;;10.50;7.22;;;;;;;31.43;65.87;100526.72;5050307;28;66309;-35
2022/08/07 12:32:51;;;;;;;11.98;7.30;;;;;;;31.52;66.37;100547.81;5054908;28;70214;-35
2022/08/07 12:35:25;;;;;;;16.48;6.75;;;;;;;31.57;66.04;100569.63;5039096;28;65615;-36
2022/08/07 12:38:06;;;;;;;13.20;6.90;;;;;;;31.53;66.11;100565.72;5040587;28;68986;-34
2022/08/07 12:41:02;;;;;;;9.00;6.97;;;;;;;31.12;65.50;100515.03;5055411;28;67056;-32
2022/08/07 12:43:42;;;;;;;11.63;7.65;;;;;;;31.53;65.78;100582.00;5043894;28;69681;-33
2022/08/07 12:46:54;;;;;;;9.18;7.50;;;;;;;31.47;65.67;100599.19;5055845;28;65663;-34
2022/08/07 12:50:05;;;;;;;12.40;6.78;;;;;;;31.44;66.29;100605.06;5051509;28;70801;-33
2022/08/07 12:53:03;;;;;;;8.13;6.43;;;;;;;31.34;66.38;100592.06;5054115;28;66546;-32
2022/08/07 12:56:03;;;;;;;7.75;6.97;;;;;;;31.10;65.95;100555.91;5051063;28;70037;-32
2022/08/07 12:58:43;;;;;;;8.25;6.88;;;;;;;31.54;65.94;100628.94;5055965;28;66214;-33
2022/08/07 13:01:57;;;;;;;7.38;6.78;;;;;;;31.51;65.53;100627.50;5050371;28;69455;-33
2022/08/07 13:04:41;;;;;;;7.97;7.25;;;;;;;31.49;65.79;100635.03;4986153;28;66058;-34
2022/08/07 13:07:50;;;;;;;11.77;7.07;;;;;;;31.51;65.93;100632.06;5051189;28;70429;-35
2022/08/07 13:11:18;;;;;;;7.85;7.18;;;;;;;31.39;65.50;100629.34;5038144;28;66537;-34